createdAt,value
2023-04-21T00:00:11.826Z,46.23
2023-04-21T00:02:40.214Z,44.20
2023-04-21T00:05:14.172Z,50.07
2023-04-21T00:07:41.943Z,58.23
2023-04-21T00:10:12.619Z,46.33
2023-04-21T00:12:39.950Z,35.37
2023-04-21T00:15:08.443Z,28.63
2023-04-21T00:17:36.050Z,28.23
2023-04-21T00:20:04.872Z,37.90
2023-04-21T00:22:32.228Z,39.57
2023-04-21T00:24:59.666Z,37.57
2023-04-21T00:27:27.072Z,28.77
2023-04-21T00:29:54.640Z,27.40
2023-04-21T00:32:21.913Z,21.07
2023-04-21T00:46:08.764Z,24.50
2023-04-21T00:48:37.036Z,26.90
2023-04-21T00:51:06.905Z,26.47
2023-04-21T00:53:35.303Z,32.93
2023-04-21T00:56:03.196Z,23.70
2023-04-21T00:58:33.327Z,26.03
2023-04-21T01:01:01.029Z,27.67
2023-04-21T01:03:30.459Z,32.73
2023-04-21T01:05:57.876Z,31.70
2023-04-21T01:08:25.108Z,29.47
2023-04-21T01:10:52.313Z,33.00
2023-04-21T01:13:22.374Z,27.87
2023-04-21T01:15:50.091Z,43.13
2023-04-21T01:18:18.730Z,30.80
2023-04-21T01:20:46.195Z,31.03
2023-04-21T01:23:13.443Z,32.67
2023-04-21T01:25:40.649Z,39.50
2023-04-21T01:28:07.987Z,40.57
2023-04-21T01:30:38.604Z,32.77
2023-04-21T01:33:06.182Z,40.40
2023-04-21T01:35:33.473Z,33.17
2023-04-21T01:38:01.728Z,36.67
2023-04-21T01:40:28.876Z,33.10
2023-04-21T01:42:56.232Z,32.93
2023-04-21T01:45:23.567Z,31.93
2023-04-21T01:47:50.782Z,22.57
2023-04-21T01:50:18.553Z,22.97
2023-04-21T01:52:45.882Z,23.93
2023-04-21T01:55:13.253Z,24.53
2023-04-21T01:57:40.556Z,28.50
2023-04-21T02:00:09.485Z,22.40
2023-04-21T02:02:38.073Z,23.70
2023-04-21T02:05:06.037Z,23.90
2023-04-21T02:07:33.245Z,21.00
2023-04-21T02:10:00.504Z,29.87
2023-04-21T02:12:27.940Z,48.73
2023-04-21T02:14:55.105Z,34.07
2023-04-21T02:17:22.347Z,29.53
2023-04-21T02:19:49.554Z,25.60
2023-04-21T02:22:16.796Z,21.87
2023-04-21T02:24:43.943Z,24.00
2023-04-21T02:27:11.271Z,20.17
2023-04-21T02:29:38.769Z,24.07
2023-04-21T02:34:37.835Z,27.97
2023-04-21T02:37:05.117Z,21.47
2023-04-21T02:39:32.353Z,20.90
2023-04-21T02:42:00.220Z,21.67
2023-04-21T02:44:27.880Z,26.73
2023-04-21T02:46:55.397Z,25.77
2023-04-21T02:49:22.561Z,26.37
2023-04-21T02:51:49.742Z,21.50
2023-04-21T02:54:17.231Z,21.03
2023-04-21T02:56:44.346Z,23.67
2023-04-21T02:59:11.974Z,22.93
2023-04-21T03:01:39.193Z,21.07
2023-04-21T03:04:06.953Z,22.93
2023-04-21T03:06:34.890Z,19.23
2023-04-21T03:09:02.070Z,19.50
2023-04-21T03:11:29.421Z,24.17
2023-04-21T03:13:57.068Z,20.63
2023-04-21T03:16:24.903Z,19.77
2023-04-21T03:18:52.094Z,22.03
2023-04-21T03:21:19.795Z,25.43
2023-04-21T03:23:46.929Z,20.23
2023-04-21T03:26:14.130Z,23.90
2023-04-21T03:28:41.343Z,20.63
2023-04-21T03:31:08.613Z,21.47
2023-04-21T03:33:36.026Z,20.60
2023-04-21T03:36:03.331Z,20.07
2023-04-21T03:38:31.154Z,26.17
2023-04-21T03:40:58.335Z,20.10
2023-04-21T03:43:25.582Z,20.37
2023-04-21T03:45:53.200Z,18.60
2023-04-21T03:48:20.707Z,19.07
2023-04-21T03:50:49.137Z,19.17
2023-04-21T03:53:16.486Z,18.67
2023-04-21T03:55:43.633Z,17.23
2023-04-21T03:58:11.021Z,19.00
2023-04-21T04:00:38.208Z,17.23
2023-04-21T04:03:05.626Z,25.93
2023-04-21T04:05:32.965Z,24.63
2023-04-21T04:08:00.212Z,22.80
2023-04-21T04:10:28.369Z,23.93
2023-04-21T04:12:55.713Z,20.20
2023-04-21T04:16:46.818Z,22.80
2023-04-21T04:19:13.963Z,22.37
2023-04-21T04:21:41.421Z,23.63
2023-04-21T04:24:09.538Z,21.70
2023-04-21T04:26:38.902Z,22.40
2023-04-21T04:29:11.158Z,21.00
2023-04-21T04:31:38.350Z,25.50
2023-04-21T04:34:05.565Z,21.77
2023-04-21T04:36:33.797Z,21.90
2023-04-21T04:39:00.957Z,25.17
2023-04-21T04:41:31.113Z,21.00
2023-04-21T04:44:01.051Z,22.27
2023-04-21T04:46:28.617Z,33.27
2023-04-21T04:48:55.800Z,27.77
2023-04-21T04:51:23.917Z,32.30
2023-04-21T04:53:51.171Z,32.10
2023-04-21T04:56:22.557Z,32.93
2023-04-21T04:58:49.680Z,27.00
2023-04-21T05:01:17.913Z,29.97
2023-04-21T05:03:46.197Z,28.10
2023-04-21T05:06:14.458Z,36.70
2023-04-21T05:08:42.383Z,32.10
2023-04-21T05:11:10.306Z,35.63
2023-04-21T05:13:40.012Z,46.07
2023-04-21T05:16:08.297Z,46.40
2023-04-21T05:18:35.697Z,51.47
2023-04-21T05:21:02.993Z,46.17
2023-04-21T05:23:30.141Z,46.93
2023-04-21T05:25:57.364Z,40.10
2023-04-21T05:28:24.699Z,40.10
2023-04-21T05:30:52.081Z,48.70
2023-04-21T05:33:22.221Z,41.07
2023-04-21T05:35:49.467Z,66.23
2023-04-21T05:38:16.799Z,51.60
2023-04-21T05:40:44.145Z,35.50
2023-04-21T05:43:11.448Z,30.73
2023-04-21T05:45:41.873Z,32.20
2023-04-21T05:48:12.223Z,42.40
2023-04-21T05:50:40.755Z,34.97
2023-04-21T05:53:08.683Z,36.60
2023-04-21T05:55:36.944Z,54.53
2023-04-21T05:58:04.562Z,78.20
2023-04-21T06:00:32.012Z,75.53
2023-04-21T06:02:59.424Z,47.60
2023-04-21T06:05:28.857Z,45.07
2023-04-21T06:07:56.384Z,42.07
2023-04-21T06:10:24.053Z,35.67
2023-04-21T06:12:51.171Z,38.17
2023-04-21T06:15:18.561Z,34.57
2023-04-21T06:17:45.735Z,37.13
2023-04-21T06:20:13.636Z,29.90
2023-04-21T06:22:40.890Z,36.33
2023-04-21T06:25:08.464Z,27.13
2023-04-21T06:27:35.688Z,28.90
2023-04-21T06:30:02.964Z,22.20
2023-04-21T06:32:30.344Z,25.47
2023-04-21T06:34:57.721Z,26.30
2023-04-21T06:37:24.991Z,31.43
2023-04-21T06:39:52.346Z,22.70
2023-04-21T06:42:19.795Z,22.20
2023-04-21T06:44:48.781Z,25.23
2023-04-21T06:47:17.226Z,21.10
2023-04-21T06:49:44.379Z,25.63
2023-04-21T06:52:12.086Z,22.80
2023-04-21T06:54:39.550Z,22.13
2023-04-21T06:57:06.931Z,27.23
2023-04-21T06:59:35.286Z,25.60
2023-04-21T07:02:02.839Z,25.63
2023-04-21T07:04:32.626Z,24.50
2023-04-21T07:07:02.419Z,20.70
2023-04-21T07:09:31.077Z,23.67
2023-04-21T07:12:01.569Z,24.20
2023-04-21T07:14:28.842Z,23.90
2023-04-21T07:16:57.539Z,23.57
2023-04-21T07:19:24.912Z,23.77
2023-04-21T07:21:52.919Z,21.13
2023-04-21T07:24:20.111Z,19.90
2023-04-21T07:26:47.427Z,25.90
2023-04-21T07:29:14.718Z,27.27
2023-04-21T07:31:42.224Z,25.73
2023-04-21T07:34:09.532Z,23.23
2023-04-21T07:36:38.409Z,21.57
2023-04-21T07:39:06.625Z,21.57
2023-04-21T07:41:34.223Z,22.47
2023-04-21T07:44:01.952Z,23.37
2023-04-21T07:46:32.109Z,21.03
2023-04-21T07:49:02.795Z,24.43
2023-04-21T07:51:32.777Z,20.13
2023-04-21T07:54:00.151Z,22.23
2023-04-21T07:56:27.941Z,28.37
2023-04-21T07:58:55.357Z,26.17
2023-04-21T08:01:23.954Z,26.73
2023-04-21T08:03:51.642Z,26.37
2023-04-21T08:06:19.270Z,23.43
2023-04-21T08:08:46.807Z,20.77
2023-04-21T08:11:14.333Z,24.83
2023-04-21T08:13:41.661Z,21.17
2023-04-21T08:16:08.926Z,18.73
2023-04-21T08:18:36.191Z,16.10
2023-04-21T08:21:03.901Z,16.47
2023-04-21T08:23:32.457Z,17.57
2023-04-21T08:25:59.927Z,16.63
2023-04-21T08:28:27.840Z,23.17
2023-04-21T08:30:55.072Z,19.60
2023-04-21T08:33:22.447Z,17.10
2023-04-21T08:36:02.410Z,13.53
2023-04-21T08:38:31.524Z,14.73
2023-04-21T08:41:00.322Z,16.17
2023-04-21T08:43:29.628Z,15.67
2023-04-21T08:45:58.308Z,18.57
2023-04-21T08:48:28.294Z,21.57
2023-04-21T08:50:55.554Z,22.57
2023-04-21T08:53:23.231Z,17.88
2023-04-21T08:56:07.676Z,16.92
2023-04-21T08:58:37.768Z,16.75
2023-04-21T09:01:05.205Z,13.95
2023-04-21T09:03:32.704Z,20.73
2023-04-21T09:06:08.435Z,16.55
2023-04-21T09:08:43.645Z,16.58
2023-04-21T09:11:15.282Z,15.45
2023-04-21T09:13:44.383Z,22.38
2023-04-21T09:16:22.568Z,18.80
2023-04-21T09:18:50.591Z,17.90
2023-04-21T09:21:20.011Z,16.05
2023-04-21T09:23:47.216Z,20.00
2023-04-21T09:26:16.126Z,15.77
2023-04-21T09:28:44.984Z,27.95
2023-04-21T09:31:25.456Z,27.17
2023-04-21T09:33:58.798Z,20.30
2023-04-21T09:36:30.178Z,26.70
2023-04-21T09:39:25.210Z,17.98
2023-04-21T09:41:46.042Z,12.32
2023-04-21T09:44:13.365Z,15.48
2023-04-21T09:46:44.699Z,24.38
2023-04-21T09:49:16.776Z,27.27
2023-04-21T09:52:10.323Z,15.05
2023-04-21T09:54:34.636Z,14.02
2023-04-21T09:57:04.905Z,9.68
2023-04-21T09:59:43.041Z,12.88
2023-04-21T10:02:11.844Z,11.23
2023-04-21T10:04:42.207Z,15.88
2023-04-21T10:07:11.307Z,9.48
2023-04-21T10:09:49.311Z,11.25
2023-04-21T10:12:17.884Z,7.38
2023-04-21T10:14:45.108Z,10.13
2023-04-21T10:17:12.474Z,10.63
2023-04-21T10:19:53.499Z,10.82
2023-04-21T10:22:34.516Z,10.27
2023-04-21T10:25:04.137Z,10.23
2023-04-21T10:27:36.258Z,10.65
2023-04-21T10:30:23.673Z,14.13
2023-04-21T10:33:03.977Z,10.52
2023-04-21T10:35:59.972Z,11.50
2023-04-21T10:38:43.246Z,13.68
2023-04-21T10:41:29.494Z,5.60
2023-04-21T10:44:00.502Z,8.60
2023-04-21T10:46:39.757Z,4.65
2023-04-21T10:49:11.318Z,6.90
2023-04-21T10:52:00.845Z,7.65
2023-04-21T10:54:31.849Z,9.90
2023-04-21T10:56:59.813Z,5.32
2023-04-21T10:59:28.196Z,8.25
2023-04-21T11:01:56.302Z,7.68
2023-04-21T11:04:24.471Z,7.15
2023-04-21T11:07:11.951Z,11.25
2023-04-21T11:09:41.140Z,10.82
2023-04-21T11:12:15.886Z,11.60
2023-04-21T11:14:44.984Z,17.65
2023-04-21T11:17:15.640Z,10.98
2023-04-21T11:19:46.907Z,8.95
2023-04-21T11:22:16.961Z,9.55
2023-04-21T11:24:49.509Z,10.23
2023-04-21T11:27:18.219Z,8.70
2023-04-21T11:29:49.177Z,9.15
2023-04-21T11:32:17.750Z,8.13
2023-04-21T11:34:46.484Z,6.82
2023-04-21T11:37:24.524Z,9.40
2023-04-21T11:40:00.920Z,9.82
2023-04-21T11:42:28.800Z,8.70
2023-04-21T11:44:56.962Z,8.00
2023-04-21T11:47:27.038Z,6.20
2023-04-21T11:50:02.689Z,9.38
2023-04-21T11:52:36.398Z,9.88
2023-04-21T11:55:21.914Z,12.43
2023-04-21T11:57:51.826Z,7.90
2023-04-21T12:00:19.679Z,20.17
2023-04-21T12:02:56.783Z,13.60
2023-04-21T12:05:24.509Z,7.47
2023-04-21T12:07:52.498Z,6.93
2023-04-21T12:10:21.700Z,10.88
2023-04-21T12:12:49.845Z,7.20
2023-04-21T12:15:20.445Z,8.68
2023-04-21T12:17:50.811Z,6.63
2023-04-21T12:20:19.862Z,10.77
2023-04-21T12:22:47.668Z,12.00
2023-04-21T12:25:15.482Z,7.55
2023-04-21T12:28:09.415Z,8.13
2023-04-21T12:30:39.295Z,12.52
2023-04-21T12:33:10.273Z,9.38
2023-04-21T12:35:37.500Z,7.63
2023-04-21T12:38:05.125Z,10.05
2023-04-21T12:40:33.336Z,7.40
2023-04-21T12:43:00.897Z,9.73
2023-04-21T12:45:28.675Z,7.72
2023-04-21T12:47:58.925Z,7.57
2023-04-21T12:50:26.638Z,5.53
2023-04-21T12:52:55.454Z,5.90
2023-04-21T12:55:23.639Z,13.55
2023-04-21T12:57:51.169Z,8.65
2023-04-21T13:00:18.572Z,31.23
2023-04-21T13:02:46.116Z,4.57
2023-04-21T13:05:14.271Z,8.50
2023-04-21T13:07:41.839Z,16.75
2023-04-21T13:10:09.503Z,7.90
2023-04-21T13:12:36.829Z,8.63
2023-04-21T13:15:05.815Z,6.97
2023-04-21T13:17:33.691Z,9.35
2023-04-21T13:20:01.337Z,8.35
2023-04-21T13:22:28.704Z,16.05
2023-04-21T13:24:56.339Z,23.38
2023-04-21T13:27:23.520Z,21.98
2023-04-21T13:29:51.047Z,6.30
2023-04-21T13:32:18.295Z,8.32
2023-04-21T13:34:46.123Z,6.22
2023-04-21T13:37:16.663Z,11.00
2023-04-21T13:39:43.927Z,9.68
2023-04-21T13:42:11.916Z,6.38
2023-04-21T13:44:40.094Z,10.88
2023-04-21T13:47:09.463Z,7.50
2023-04-21T13:49:37.160Z,6.68
2023-04-21T13:52:04.930Z,9.65
2023-04-21T13:54:32.391Z,5.50
2023-04-21T13:57:00.430Z,9.18
2023-04-21T13:59:30.859Z,5.25
2023-04-21T14:01:58.612Z,7.78
2023-04-21T14:04:27.561Z,6.60
2023-04-21T14:06:55.711Z,8.10
2023-04-21T14:09:23.126Z,7.03
2023-04-21T14:11:50.819Z,8.80
2023-04-21T14:14:31.313Z,13.18
2023-04-21T14:17:05.112Z,7.75
2023-04-21T14:19:35.593Z,4.97
2023-04-21T14:22:03.453Z,5.25
2023-04-21T14:24:32.682Z,5.90
2023-04-21T14:27:00.144Z,7.82
2023-04-21T14:29:30.421Z,15.90
2023-04-21T14:31:58.985Z,17.00
2023-04-21T14:34:26.818Z,10.25
2023-04-21T14:36:54.264Z,9.80
2023-04-21T14:39:21.640Z,5.35
2023-04-21T14:41:49.242Z,7.82
2023-04-21T14:44:16.891Z,8.68
2023-04-21T14:46:48.166Z,6.45
2023-04-21T14:49:25.445Z,72.25
2023-04-21T14:51:52.833Z,10.23
2023-04-21T14:54:20.314Z,9.00
2023-04-21T14:56:47.559Z,6.78
2023-04-21T14:59:15.091Z,8.93
2023-04-21T15:01:42.472Z,7.13
2023-04-21T15:04:10.824Z,9.20
2023-04-21T15:06:38.339Z,9.95
2023-04-21T15:09:06.691Z,16.58
2023-04-21T15:11:34.344Z,10.80
2023-04-21T15:14:01.628Z,12.40
2023-04-21T15:16:29.269Z,14.60
2023-04-21T15:18:56.533Z,17.98
2023-04-21T15:21:24.248Z,16.23
2023-04-21T15:23:51.477Z,11.25
2023-04-21T15:26:18.874Z,7.00
2023-04-21T15:28:49.484Z,5.32
2023-04-21T15:31:16.980Z,8.32
2023-04-21T15:33:44.337Z,6.50
2023-04-21T15:36:11.646Z,8.60
2023-04-21T15:38:39.019Z,24.05
2023-04-21T15:41:06.693Z,11.95
2023-04-21T15:43:35.430Z,18.70
2023-04-21T15:46:04.820Z,15.55
2023-04-21T15:48:32.270Z,26.08
2023-04-21T15:50:59.609Z,31.45
2023-04-21T15:53:27.809Z,10.10
2023-04-21T15:55:55.652Z,40.13
2023-04-21T15:58:22.915Z,29.23
2023-04-21T16:00:51.605Z,25.85
2023-04-21T16:03:19.076Z,38.78
2023-04-21T16:05:46.853Z,18.35
2023-04-21T16:08:14.666Z,56.97
2023-04-21T16:10:42.020Z,45.30
2023-04-21T16:13:09.520Z,32.40
2023-04-21T16:15:36.921Z,30.75
2023-04-21T16:18:06.868Z,60.75
2023-04-21T16:20:34.760Z,21.45
2023-04-21T16:23:02.480Z,18.75
2023-04-21T16:25:30.126Z,39.25
2023-04-21T16:27:57.666Z,49.40
2023-04-21T16:30:25.265Z,61.88
2023-04-21T16:32:52.642Z,32.80
2023-04-21T16:35:20.865Z,65.05
2023-04-21T16:37:48.524Z,32.63
2023-04-21T16:40:16.001Z,38.90
2023-04-21T16:42:43.378Z,65.70
2023-04-21T16:45:11.675Z,53.40
2023-04-21T16:47:42.091Z,58.28
2023-04-21T16:50:10.356Z,14.00
2023-04-21T16:52:37.919Z,20.95
2023-04-21T16:55:05.859Z,13.67
2023-04-21T16:57:33.933Z,37.97
2023-04-21T17:00:02.107Z,34.22
2023-04-21T17:02:29.818Z,40.83
2023-04-21T17:05:03.470Z,32.00
2023-04-21T17:07:32.368Z,39.37
2023-04-21T17:09:59.910Z,36.27
2023-04-21T17:12:27.431Z,75.87
2023-04-21T17:14:58.145Z,59.87
2023-04-21T17:17:36.287Z,64.20
2023-04-21T17:20:08.118Z,65.03
2023-04-21T17:22:37.000Z,39.83
2023-04-21T17:25:05.788Z,41.30
2023-04-21T17:27:39.045Z,62.33
2023-04-21T17:30:07.665Z,46.83
2023-04-21T17:32:41.594Z,52.87
2023-04-21T17:35:09.358Z,103.67
2023-04-21T17:37:37.076Z,83.37
2023-04-21T17:40:09.832Z,48.93
2023-04-21T17:42:37.702Z,67.77
2023-04-21T17:45:07.733Z,90.47
2023-04-21T17:47:35.409Z,45.73
2023-04-21T17:50:03.013Z,55.27
2023-04-21T17:52:31.434Z,55.03
2023-04-21T17:54:58.675Z,51.00
2023-04-21T17:57:27.400Z,42.93
2023-04-21T17:59:55.113Z,42.57
2023-04-21T18:02:22.739Z,39.97
2023-04-21T18:04:50.092Z,44.17
2023-04-21T18:07:17.330Z,52.57
2023-04-21T18:09:49.436Z,58.10
2023-04-21T18:12:17.113Z,111.77
2023-04-21T18:14:44.520Z,134.57
2023-04-21T18:17:11.821Z,149.30
2023-04-21T18:19:39.324Z,112.80
2023-04-21T18:22:06.866Z,143.45
2023-04-21T18:24:35.275Z,182.63
2023-04-21T18:27:03.021Z,129.20
2023-04-21T18:29:30.819Z,86.60
2023-04-21T18:31:58.191Z,79.87
2023-04-21T18:34:25.891Z,84.17
2023-04-21T18:36:54.562Z,83.93
2023-04-21T18:39:22.160Z,69.13
2023-04-21T18:41:50.151Z,61.77
2023-04-21T18:44:17.567Z,54.23
2023-04-21T18:46:45.123Z,39.63
2023-04-21T18:49:12.607Z,33.73
2023-04-21T18:51:40.082Z,33.87
2023-04-21T18:54:08.220Z,32.87
2023-04-21T18:56:36.137Z,27.10
2023-04-21T18:59:03.846Z,23.73
2023-04-21T19:01:31.206Z,22.50
2023-04-21T19:03:59.771Z,22.60
2023-04-21T19:06:28.728Z,19.30
2023-04-21T19:08:57.281Z,21.07
2023-04-21T19:11:24.924Z,21.77
2023-04-21T19:13:52.332Z,27.00
2023-04-21T19:16:20.713Z,26.23
2023-04-21T19:18:48.045Z,20.67
2023-04-21T19:21:15.361Z,24.90
2023-04-21T19:23:42.723Z,19.83
2023-04-21T19:26:12.672Z,13.73
2023-04-21T19:28:41.558Z,10.80
2023-04-21T19:31:09.727Z,12.00
2023-04-21T19:33:36.941Z,12.23
2023-04-21T19:36:04.947Z,15.33
2023-04-21T19:38:34.431Z,9.80
2023-04-21T19:41:01.845Z,10.87
2023-04-21T19:43:29.932Z,6.87
2023-04-21T19:46:00.742Z,7.93
2023-04-21T19:48:35.045Z,7.50
2023-04-21T19:51:03.113Z,8.00
2023-04-21T19:53:31.571Z,7.50
2023-04-21T19:55:59.005Z,10.63
2023-04-21T19:58:39.785Z,7.70
2023-04-21T20:01:09.218Z,7.90
2023-04-21T20:03:38.154Z,11.03
2023-04-21T20:06:06.160Z,7.00
2023-04-21T20:08:33.701Z,7.30
2023-04-21T20:11:01.639Z,9.10
2023-04-21T20:13:29.844Z,9.10
2023-04-21T20:15:57.488Z,7.50
2023-04-21T20:18:25.144Z,7.37
2023-04-21T20:20:53.074Z,8.73
2023-04-21T20:23:20.898Z,9.40
2023-04-21T20:25:48.446Z,8.37
2023-04-21T20:28:16.702Z,10.93
2023-04-21T20:30:44.303Z,14.97
2023-04-21T20:33:12.254Z,17.63
2023-04-21T20:35:44.223Z,18.50
2023-04-21T20:38:11.518Z,19.10
2023-04-21T20:40:40.640Z,13.93
2023-04-21T20:43:08.634Z,12.50
2023-04-21T20:45:41.609Z,10.83
2023-04-21T20:48:09.430Z,10.33
2023-04-21T20:50:43.338Z,9.73
2023-04-21T20:53:12.253Z,8.90
2023-04-21T20:55:40.241Z,9.87
2023-04-21T20:58:07.685Z,9.60
2023-04-21T21:00:35.306Z,7.77
2023-04-21T21:03:04.190Z,7.23
2023-04-21T21:05:37.722Z,9.13
2023-04-21T21:08:05.926Z,11.03
2023-04-21T21:10:33.186Z,15.30
2023-04-21T21:13:00.462Z,18.27
2023-04-21T21:15:30.660Z,30.43
2023-04-21T21:17:57.981Z,16.50
2023-04-21T21:20:25.650Z,18.97
2023-04-21T21:22:56.940Z,15.50
2023-04-21T21:25:24.319Z,35.47
2023-04-21T21:27:51.537Z,53.93
2023-04-21T21:30:18.693Z,55.57
2023-04-21T21:32:46.138Z,30.00
2023-04-21T21:35:13.504Z,62.63
2023-04-21T21:37:41.479Z,32.07
2023-04-21T21:40:09.551Z,14.93
2023-04-21T21:42:38.990Z,20.83
2023-04-21T21:45:07.296Z,21.67
2023-04-21T21:47:38.229Z,20.77
2023-04-21T21:50:08.452Z,18.27
2023-04-21T21:52:36.020Z,11.43
2023-04-21T21:55:03.356Z,14.53
2023-04-21T21:57:30.692Z,15.87
2023-04-21T21:59:58.082Z,12.50
2023-04-21T22:02:25.400Z,16.87
2023-04-21T22:04:53.257Z,15.13
2023-04-21T22:07:25.250Z,15.70
2023-04-21T22:09:52.968Z,11.63
2023-04-21T22:12:20.375Z,16.17
2023-04-21T22:14:47.767Z,20.90
2023-04-21T22:17:16.106Z,25.70
2023-04-21T22:19:43.665Z,23.57
2023-04-21T22:22:10.820Z,30.50
2023-04-21T22:24:38.545Z,27.60
2023-04-21T22:27:07.964Z,41.70
2023-04-21T22:29:35.244Z,43.83
2023-04-21T22:32:02.478Z,43.53
2023-04-21T22:34:29.951Z,55.83
2023-04-21T22:36:58.024Z,68.70
2023-04-21T22:39:26.210Z,60.53
2023-04-21T22:41:53.488Z,53.03
2023-04-21T22:44:20.881Z,56.87
2023-04-21T22:46:48.534Z,57.90
2023-04-21T22:49:17.466Z,57.30
2023-04-21T22:51:44.838Z,54.10
2023-04-21T22:54:12.054Z,46.13
2023-04-21T22:56:39.470Z,56.20
2023-04-21T22:59:07.170Z,58.80
2023-04-21T23:01:35.149Z,53.87
2023-04-21T23:04:02.838Z,55.73
2023-04-21T23:06:30.249Z,42.97
2023-04-21T23:08:57.608Z,37.60
2023-04-21T23:11:25.449Z,37.97
2023-04-21T23:13:52.801Z,38.00
2023-04-21T23:16:20.095Z,34.13
2023-04-21T23:18:47.468Z,33.43
2023-04-21T23:21:20.069Z,28.70
2023-04-21T23:23:47.581Z,31.00
2023-04-21T23:26:14.786Z,35.87
2023-04-21T23:28:42.021Z,31.63
2023-04-21T23:31:09.208Z,35.83
2023-04-21T23:33:36.463Z,34.00
2023-04-21T23:36:03.843Z,36.33
2023-04-21T23:38:31.078Z,35.10
2023-04-21T23:40:58.368Z,45.13
2023-04-21T23:43:25.717Z,36.33
2023-04-21T23:45:56.142Z,38.80
2023-04-21T23:48:23.578Z,37.20
2023-04-21T23:50:50.819Z,39.53
2023-04-21T23:53:18.191Z,44.43
2023-04-21T23:55:46.503Z,43.40
2023-04-21T23:58:14.026Z,44.60
